createdAt,value
2023-06-29T00:01:47.654Z,24.90
2023-06-29T00:04:19.400Z,24.90
2023-06-29T00:06:47.500Z,24.90
2023-06-29T00:09:15.485Z,24.80
2023-06-29T00:11:43.525Z,24.80
2023-06-29T00:14:12.992Z,24.80
2023-06-29T00:16:41.118Z,24.80
2023-06-29T00:19:09.419Z,24.80
2023-06-29T00:21:37.505Z,24.80
2023-06-29T00:24:06.319Z,24.80
2023-06-29T00:26:34.718Z,24.80
2023-06-29T00:29:03.060Z,24.80
2023-06-29T00:31:32.654Z,24.80
2023-06-29T00:34:00.766Z,24.80
2023-06-29T00:36:28.802Z,24.70
2023-06-29T00:38:56.876Z,24.70
2023-06-29T00:41:24.906Z,24.80
2023-06-29T00:43:53.267Z,24.70
2023-06-29T00:46:22.792Z,24.70
2023-06-29T00:48:54.008Z,24.70
2023-06-29T00:51:22.477Z,24.70
2023-06-29T00:53:50.766Z,24.70
2023-06-29T00:56:18.903Z,24.70
2023-06-29T00:58:49.707Z,24.70
2023-06-29T01:01:18.924Z,24.70
2023-06-29T01:03:47.363Z,24.60
2023-06-29T01:06:24.004Z,24.60
2023-06-29T01:08:56.867Z,24.60
2023-06-29T01:11:25.063Z,24.60
2023-06-29T01:13:54.948Z,24.60
2023-06-29T01:16:24.288Z,24.60
2023-06-29T01:18:53.988Z,24.60
2023-06-29T01:21:24.732Z,24.50
2023-06-29T01:23:57.020Z,24.50
2023-06-29T01:26:26.609Z,24.50
2023-06-29T01:28:57.989Z,24.50
2023-06-29T01:31:28.288Z,24.50
2023-06-29T01:33:56.746Z,24.50
2023-06-29T01:36:31.030Z,24.50
2023-06-29T01:39:04.087Z,24.40
2023-06-29T01:41:39.991Z,24.40
2023-06-29T01:44:10.078Z,24.40
2023-06-29T01:46:39.379Z,24.40
2023-06-29T01:49:08.464Z,24.40
2023-06-29T01:51:36.772Z,24.40
2023-06-29T01:54:05.396Z,24.40
2023-06-29T01:56:35.125Z,24.40
2023-06-29T01:59:05.436Z,24.40
2023-06-29T02:01:34.408Z,24.40
2023-06-29T02:04:02.536Z,24.40
2023-06-29T02:06:30.577Z,24.30
2023-06-29T02:08:58.684Z,24.30
2023-06-29T02:11:26.758Z,24.30
2023-06-29T02:13:58.330Z,24.30
2023-06-29T02:16:26.405Z,24.30
2023-06-29T02:18:54.457Z,24.30
2023-06-29T02:21:22.572Z,24.30
2023-06-29T02:23:50.667Z,24.30
2023-06-29T02:26:18.812Z,24.30
2023-06-29T02:28:47.406Z,24.30
2023-06-29T02:31:17.711Z,24.30
2023-06-29T02:33:47.181Z,24.30
2023-06-29T02:36:16.422Z,24.20
2023-06-29T02:38:47.059Z,24.20
2023-06-29T02:41:15.252Z,24.20
2023-06-29T02:43:43.731Z,24.20
2023-06-29T02:46:11.789Z,24.20
2023-06-29T02:48:41.990Z,24.20
2023-06-29T02:51:10.670Z,24.10
2023-06-29T02:53:40.173Z,24.10
2023-06-29T02:56:08.185Z,24.10
2023-06-29T02:58:36.287Z,24.10
2023-06-29T03:01:08.121Z,24.10
2023-06-29T03:03:36.236Z,24.10
2023-06-29T03:06:05.844Z,24.10
2023-06-29T03:08:33.926Z,24.10
2023-06-29T03:11:02.002Z,24.10
2023-06-29T03:13:30.045Z,24.10
2023-06-29T03:16:01.989Z,24.00
2023-06-29T03:18:30.075Z,24.00
2023-06-29T03:20:58.400Z,24.00
2023-06-29T03:23:27.789Z,24.00
2023-06-29T03:25:55.865Z,24.00
2023-06-29T03:28:23.921Z,24.00
2023-06-29T03:30:51.953Z,24.00
2023-06-29T03:33:20.021Z,24.00
2023-06-29T03:35:48.055Z,24.00
2023-06-29T03:38:18.425Z,24.00
2023-06-29T03:40:48.047Z,24.00
2023-06-29T03:43:16.131Z,24.00
2023-06-29T03:45:44.590Z,24.00
2023-06-29T03:48:13.111Z,24.00
2023-06-29T03:50:41.619Z,24.00
2023-06-29T03:53:10.259Z,23.90
2023-06-29T03:55:38.285Z,23.90
2023-06-29T03:58:07.598Z,24.00
2023-06-29T04:00:35.635Z,23.90
2023-06-29T04:03:04.017Z,23.90
2023-06-29T04:05:32.657Z,23.90
2023-06-29T04:08:05.138Z,23.90
2023-06-29T04:10:33.441Z,23.90
2023-06-29T04:13:01.805Z,23.90
2023-06-29T04:15:32.118Z,23.90
2023-06-29T04:18:00.255Z,23.90
2023-06-29T04:20:29.925Z,23.90
2023-06-29T04:22:58.083Z,23.90
2023-06-29T04:25:26.108Z,23.90
2023-06-29T04:27:54.163Z,23.90
2023-06-29T04:30:22.226Z,23.90
2023-06-29T04:32:51.656Z,23.90
2023-06-29T04:35:19.720Z,23.90
2023-06-29T04:37:47.793Z,23.90
2023-06-29T04:40:34.535Z,23.90
2023-06-29T04:43:03.137Z,23.90
2023-06-29T04:45:32.877Z,23.90
2023-06-29T04:48:03.314Z,23.90
2023-06-29T04:50:36.653Z,23.90
2023-06-29T04:53:10.171Z,23.90
2023-06-29T04:55:39.169Z,23.90
2023-06-29T04:58:07.715Z,24.00
2023-06-29T05:00:35.776Z,24.00
2023-06-29T05:03:05.350Z,24.00
2023-06-29T05:05:33.515Z,24.00
2023-06-29T05:08:01.574Z,24.00
2023-06-29T05:10:29.619Z,24.00
2023-06-29T05:12:57.704Z,24.00
2023-06-29T05:15:25.701Z,24.00
2023-06-29T05:17:54.711Z,24.10
2023-06-29T05:20:24.103Z,24.10
2023-06-29T05:22:52.373Z,24.10
2023-06-29T05:25:20.615Z,24.10
2023-06-29T05:27:48.658Z,24.10
2023-06-29T05:30:17.642Z,24.10
2023-06-29T05:32:45.945Z,24.20
2023-06-29T05:35:14.309Z,24.20
2023-06-29T05:37:43.753Z,24.20
2023-06-29T05:40:13.884Z,24.20
2023-06-29T05:42:42.135Z,24.30
2023-06-29T05:45:11.106Z,24.30
2023-06-29T05:47:39.208Z,24.30
2023-06-29T05:50:08.760Z,24.30
2023-06-29T05:52:38.649Z,24.40
2023-06-29T05:55:09.005Z,24.40
2023-06-29T05:57:37.096Z,24.40
2023-06-29T06:00:12.046Z,24.40
2023-06-29T06:02:40.087Z,24.40
2023-06-29T06:05:09.336Z,24.50
2023-06-29T06:07:37.586Z,24.50
2023-06-29T06:10:08.381Z,24.50
2023-06-29T06:12:36.495Z,24.60
2023-06-29T06:15:06.879Z,24.60
2023-06-29T06:17:35.034Z,24.60
2023-06-29T06:20:05.289Z,24.60
2023-06-29T06:22:33.417Z,24.70
2023-06-29T06:25:01.587Z,24.70
2023-06-29T06:27:32.026Z,24.70
2023-06-29T06:30:00.089Z,24.70
2023-06-29T06:32:28.159Z,24.70
2023-06-29T06:34:56.180Z,24.80
2023-06-29T06:37:24.363Z,24.80
2023-06-29T06:39:52.356Z,24.80
2023-06-29T06:42:20.536Z,24.90
2023-06-29T06:44:54.406Z,24.90
2023-06-29T06:47:22.607Z,24.90
2023-06-29T06:49:50.739Z,24.90
2023-06-29T06:52:18.775Z,24.90
2023-06-29T06:54:46.806Z,25.00
2023-06-29T06:57:14.910Z,25.00
2023-06-29T06:59:43.667Z,25.00
2023-06-29T07:02:14.057Z,25.00
2023-06-29T07:04:42.390Z,25.10
2023-06-29T07:07:10.656Z,25.10
2023-06-29T07:09:41.049Z,25.10
2023-06-29T07:12:11.069Z,25.10
2023-06-29T07:14:39.361Z,25.10
2023-06-29T07:17:08.295Z,25.20
2023-06-29T07:24:39.805Z,25.20
2023-06-29T07:27:07.951Z,25.20
2023-06-29T07:29:36.008Z,25.20
2023-06-29T07:32:04.302Z,25.30
2023-06-29T07:34:33.155Z,25.30
2023-06-29T07:37:02.627Z,25.30
2023-06-29T07:39:30.743Z,25.40
2023-06-29T07:41:58.743Z,25.40
2023-06-29T07:44:26.820Z,25.40
2023-06-29T07:46:54.943Z,25.40
2023-06-29T07:49:23.872Z,25.40
2023-06-29T07:51:51.954Z,25.40
2023-06-29T07:54:21.311Z,25.50
2023-06-29T07:59:20.515Z,25.50
2023-06-29T08:01:50.174Z,25.50
2023-06-29T08:06:45.802Z,25.60
2023-06-29T08:07:10.425Z,25.60
2023-06-29T08:09:40.363Z,25.60
2023-06-29T08:12:09.846Z,25.60
2023-06-29T08:14:39.886Z,25.60
2023-06-29T08:17:08.346Z,25.60
2023-06-29T08:19:36.517Z,25.70
2023-06-29T08:22:05.210Z,25.70
2023-06-29T08:24:33.320Z,25.70
2023-06-29T08:27:02.877Z,25.70
2023-06-29T08:29:31.072Z,25.80
2023-06-29T08:31:59.245Z,25.80
2023-06-29T08:34:27.373Z,25.80
2023-06-29T08:36:55.522Z,25.80
2023-06-29T08:39:23.603Z,25.80
2023-06-29T08:41:52.276Z,25.80
2023-06-29T08:44:23.541Z,25.90
2023-06-29T08:46:52.714Z,25.90
2023-06-29T08:49:23.534Z,25.90
2023-06-29T08:51:54.342Z,25.90
2023-06-29T08:54:22.519Z,25.90
2023-06-29T08:56:50.878Z,25.90
2023-06-29T08:59:19.268Z,26.00
2023-06-29T09:01:49.670Z,26.00
2023-06-29T09:04:18.279Z,26.00
2023-06-29T09:06:46.643Z,26.00
2023-06-29T09:09:15.693Z,26.00
2023-06-29T09:11:44.053Z,26.00
2023-06-29T09:14:12.840Z,26.00
2023-06-29T09:16:54.501Z,26.00
2023-06-29T09:19:25.285Z,26.00
2023-06-29T09:21:54.059Z,26.10
2023-06-29T09:24:22.713Z,26.10
2023-06-29T09:26:53.698Z,26.10
2023-06-29T09:29:22.337Z,26.10
2023-06-29T09:31:58.435Z,26.20
2023-06-29T09:34:28.889Z,26.20
2023-06-29T09:36:57.896Z,26.20
2023-06-29T09:39:27.562Z,26.20
2023-06-29T09:41:57.425Z,26.20
2023-06-29T09:44:27.027Z,26.30
2023-06-29T09:49:46.786Z,26.30
2023-06-29T09:52:14.996Z,26.40
2023-06-29T09:54:43.910Z,26.30
2023-06-29T09:57:13.057Z,26.40
2023-06-29T09:59:42.427Z,26.40
2023-06-29T10:02:12.509Z,26.40
2023-06-29T10:04:42.906Z,26.40
2023-06-29T10:07:15.958Z,26.50
2023-06-29T10:09:47.532Z,26.50
2023-06-29T10:12:16.213Z,26.50
2023-06-29T10:14:46.161Z,26.50
2023-06-29T10:17:23.973Z,26.50
2023-06-29T10:19:54.304Z,26.50
2023-06-29T10:22:23.754Z,26.50
2023-06-29T10:24:55.449Z,26.60
2023-06-29T10:27:30.762Z,26.60
2023-06-29T10:30:03.996Z,26.60
2023-06-29T10:32:34.881Z,26.60
2023-06-29T10:35:06.803Z,26.60
2023-06-29T10:37:38.048Z,26.60
2023-06-29T10:40:15.995Z,26.60
2023-06-29T10:42:55.620Z,26.60
2023-06-29T10:45:36.330Z,26.60
2023-06-29T10:48:19.647Z,26.60
2023-06-29T10:50:59.847Z,26.60
2023-06-29T10:53:31.087Z,26.60
2023-06-29T10:55:59.351Z,26.60
2023-06-29T10:58:30.618Z,26.60
2023-06-29T11:00:58.741Z,26.60
2023-06-29T11:03:29.324Z,26.60
2023-06-29T11:05:58.326Z,26.60
2023-06-29T11:08:26.899Z,26.60
2023-06-29T11:10:55.226Z,26.60
2023-06-29T11:13:23.973Z,26.60
2023-06-29T11:15:57.722Z,26.60
2023-06-29T11:18:26.060Z,26.60
2023-06-29T11:20:55.433Z,26.60
2023-06-29T11:23:23.622Z,26.60
2023-06-29T11:25:51.899Z,26.60
2023-06-29T11:28:20.342Z,26.60
2023-06-29T11:30:52.434Z,26.50
2023-06-29T11:36:12.658Z,26.60
2023-06-29T11:38:40.896Z,26.60
2023-06-29T11:41:09.497Z,26.50
2023-06-29T11:43:37.931Z,26.50
2023-06-29T11:46:06.170Z,26.50
2023-06-29T11:48:34.581Z,26.50
2023-06-29T11:51:03.214Z,26.50
2023-06-29T11:53:33.369Z,26.50
2023-06-29T11:56:01.413Z,26.50
2023-06-29T11:58:36.175Z,26.50
2023-06-29T12:01:05.453Z,26.50
2023-06-29T12:03:35.000Z,26.50
2023-06-29T12:06:03.326Z,26.50
2023-06-29T12:08:40.570Z,26.50
2023-06-29T12:11:17.194Z,26.50
2023-06-29T12:13:47.331Z,26.50
2023-06-29T12:18:46.777Z,26.50
2023-06-29T12:21:20.659Z,26.50
2023-06-29T12:23:50.634Z,26.50
2023-06-29T12:26:20.113Z,26.50
2023-06-29T12:28:48.176Z,26.50
2023-06-29T12:31:16.338Z,26.50
2023-06-29T12:33:44.425Z,26.50
2023-06-29T12:36:12.818Z,26.40
2023-06-29T12:38:41.138Z,26.50
2023-06-29T12:41:10.674Z,26.40
2023-06-29T12:43:38.736Z,26.50
2023-06-29T12:46:06.901Z,26.40
2023-06-29T12:48:35.158Z,26.40
2023-06-29T12:51:03.218Z,26.40
2023-06-29T12:53:33.436Z,26.40
2023-06-29T12:56:02.161Z,26.40
2023-06-29T12:58:33.460Z,26.40
2023-06-29T13:01:04.720Z,26.40
2023-06-29T13:03:33.335Z,26.40
2023-06-29T13:06:01.462Z,26.40
2023-06-29T13:08:30.805Z,26.40
2023-06-29T13:10:59.377Z,26.40
2023-06-29T13:13:27.837Z,26.40
2023-06-29T13:15:57.428Z,26.40
2023-06-29T13:18:25.718Z,26.40
2023-06-29T13:20:53.847Z,26.40
2023-06-29T13:23:21.960Z,26.40
2023-06-29T13:25:50.058Z,26.40
2023-06-29T13:28:18.042Z,26.40
2023-06-29T13:30:46.216Z,26.50
2023-06-29T13:33:15.838Z,26.50
2023-06-29T13:35:44.250Z,26.50
2023-06-29T13:38:12.750Z,26.50
2023-06-29T13:40:40.939Z,26.50
2023-06-29T13:43:09.008Z,26.50
2023-06-29T13:45:37.106Z,26.50
2023-06-29T13:48:05.670Z,26.50
2023-06-29T13:50:40.887Z,26.50
2023-06-29T13:53:10.082Z,26.50
2023-06-29T13:55:38.654Z,26.60
2023-06-29T13:58:06.815Z,26.60
2023-06-29T14:00:35.091Z,26.60
2023-06-29T14:03:03.679Z,26.60
2023-06-29T14:05:31.893Z,26.60
2023-06-29T14:08:01.314Z,26.60
2023-06-29T14:10:29.422Z,26.60
2023-06-29T14:12:58.397Z,26.60
2023-06-29T14:15:26.803Z,26.60
2023-06-29T14:17:55.247Z,26.60
2023-06-29T14:20:24.665Z,26.60
2023-06-29T14:22:54.298Z,26.60
2023-06-29T14:25:23.739Z,26.60
2023-06-29T14:27:51.927Z,26.60
2023-06-29T14:30:20.211Z,26.60
2023-06-29T14:32:51.287Z,26.50
2023-06-29T14:35:30.730Z,26.50
2023-06-29T14:38:13.545Z,26.60
2023-06-29T14:40:44.644Z,26.60
2023-06-29T14:43:13.430Z,26.60
2023-06-29T14:45:41.973Z,26.60
2023-06-29T14:48:10.801Z,26.60
2023-06-29T14:50:39.154Z,26.60
2023-06-29T14:53:07.283Z,26.60
2023-06-29T14:55:35.377Z,26.60
2023-06-29T14:58:05.677Z,26.60
2023-06-29T15:00:34.612Z,26.60
2023-06-29T15:03:02.912Z,26.60
2023-06-29T15:05:32.377Z,26.60
2023-06-29T15:08:00.655Z,26.60
2023-06-29T15:10:28.885Z,26.60
2023-06-29T15:12:57.007Z,26.60
2023-06-29T15:15:26.591Z,26.60
2023-06-29T15:17:54.668Z,26.60
2023-06-29T15:20:22.821Z,26.60
2023-06-29T15:22:50.847Z,26.60
2023-06-29T15:25:19.435Z,26.60
2023-06-29T15:27:47.540Z,26.60
2023-06-29T15:30:15.990Z,26.60
2023-06-29T15:32:45.731Z,26.60
2023-06-29T15:35:13.807Z,26.60
2023-06-29T15:37:41.991Z,26.60
2023-06-29T15:40:11.626Z,26.60
2023-06-29T15:42:40.354Z,26.60
2023-06-29T15:45:09.425Z,26.70
2023-06-29T15:47:37.613Z,26.70
2023-06-29T15:50:08.923Z,26.70
2023-06-29T15:52:38.153Z,26.70
2023-06-29T15:55:08.625Z,26.70
2023-06-29T15:57:36.686Z,26.70
2023-06-29T16:00:05.462Z,26.70
2023-06-29T16:02:40.300Z,26.70
2023-06-29T16:05:10.965Z,26.70
2023-06-29T16:07:39.729Z,26.70
2023-06-29T16:10:08.843Z,26.70
2023-06-29T16:12:36.895Z,26.70
2023-06-29T16:15:08.807Z,26.70
2023-06-29T16:17:37.053Z,26.70
2023-06-29T16:20:06.684Z,26.70
2023-06-29T16:22:38.040Z,26.70
2023-06-29T16:25:07.946Z,26.70
2023-06-29T16:27:36.065Z,26.70
2023-06-29T16:30:05.851Z,26.70
2023-06-29T16:32:34.579Z,26.70
2023-06-29T16:35:04.370Z,26.70
2023-06-29T16:37:32.567Z,26.70
2023-06-29T16:40:02.141Z,26.70
2023-06-29T16:42:30.332Z,26.70
2023-06-29T16:44:58.447Z,26.70
2023-06-29T16:47:26.626Z,26.70
2023-06-29T16:49:56.390Z,26.70
2023-06-29T16:52:24.612Z,26.70
2023-06-29T16:54:53.065Z,26.70
2023-06-29T16:57:22.533Z,26.70
2023-06-29T16:59:50.618Z,26.70
2023-06-29T17:02:18.769Z,26.70
2023-06-29T17:04:46.946Z,26.70
2023-06-29T17:07:15.120Z,26.70
2023-06-29T17:09:43.426Z,26.70
2023-06-29T17:12:11.771Z,26.70
2023-06-29T17:14:41.986Z,26.70
2023-06-29T17:17:10.302Z,26.70
2023-06-29T17:19:40.101Z,26.70
2023-06-29T17:22:09.549Z,26.70
2023-06-29T17:24:40.877Z,26.70
2023-06-29T17:27:09.777Z,26.70
2023-06-29T17:29:42.143Z,26.70
2023-06-29T17:32:10.748Z,26.70
2023-06-29T17:34:39.190Z,26.70
2023-06-29T17:37:07.873Z,26.70
2023-06-29T17:39:35.986Z,26.70
2023-06-29T17:42:04.370Z,26.70
2023-06-29T17:44:32.524Z,26.70
2023-06-29T17:47:01.967Z,26.70
2023-06-29T17:49:29.957Z,26.70
2023-06-29T17:51:58.059Z,26.70
2023-06-29T17:54:26.085Z,26.70
2023-06-29T17:56:54.122Z,26.70
2023-06-29T17:59:22.186Z,26.70
2023-06-29T18:01:50.536Z,26.70
2023-06-29T18:04:20.655Z,26.70
2023-06-29T18:06:48.772Z,26.70
2023-06-29T18:09:16.818Z,26.70
2023-06-29T18:11:44.885Z,26.70
2023-06-29T18:14:13.066Z,26.70
2023-06-29T18:16:41.260Z,26.70
2023-06-29T18:19:09.450Z,26.70
2023-06-29T18:21:38.912Z,26.70
2023-06-29T18:24:08.585Z,26.70
2023-06-29T18:26:36.714Z,26.70
2023-06-29T18:29:05.115Z,26.60
2023-06-29T18:31:33.332Z,26.70
2023-06-29T18:34:02.308Z,26.70
2023-06-29T18:36:30.679Z,26.70
2023-06-29T18:39:00.449Z,26.60
2023-06-29T18:41:31.303Z,26.70
2023-06-29T18:44:00.393Z,26.70
2023-06-29T18:46:31.093Z,26.70
2023-06-29T18:48:59.565Z,26.60
2023-06-29T18:51:27.833Z,26.70
2023-06-29T18:53:55.963Z,26.60
2023-06-29T18:56:25.455Z,26.60
2023-06-29T18:58:53.563Z,26.60
2023-06-29T19:01:22.100Z,26.60
2023-06-29T19:03:50.295Z,26.60
2023-06-29T19:06:18.423Z,26.60
2023-06-29T19:08:46.684Z,26.60
2023-06-29T19:11:14.974Z,26.60
2023-06-29T19:13:44.373Z,26.60
2023-06-29T19:16:12.818Z,26.60
2023-06-29T19:18:41.164Z,26.60
2023-06-29T19:21:10.245Z,26.60
2023-06-29T19:23:43.991Z,26.60
2023-06-29T19:26:12.809Z,26.60
2023-06-29T19:28:41.690Z,26.60
2023-06-29T19:31:11.156Z,26.60
2023-06-29T19:33:40.028Z,26.60
2023-06-29T19:36:08.941Z,26.60
2023-06-29T19:38:37.162Z,26.60
2023-06-29T19:41:06.322Z,26.60
2023-06-29T19:43:34.819Z,26.60
2023-06-29T19:46:02.948Z,26.50
2023-06-29T19:48:32.509Z,26.50
2023-06-29T19:51:00.611Z,26.50
2023-06-29T19:53:28.636Z,26.50
2023-06-29T19:55:56.735Z,26.50
2023-06-29T19:58:25.257Z,26.50
2023-06-29T20:00:54.301Z,26.50
2023-06-29T20:03:22.649Z,26.50
2023-06-29T20:05:52.153Z,26.50
2023-06-29T20:08:20.833Z,26.40
2023-06-29T20:10:50.537Z,26.50
2023-06-29T20:13:18.657Z,26.40
2023-06-29T20:15:47.400Z,26.40
2023-06-29T20:18:15.826Z,26.40
2023-06-29T20:20:43.870Z,26.40
2023-06-29T20:23:13.218Z,26.40
2023-06-29T20:25:41.254Z,26.40
2023-06-29T20:28:09.343Z,26.40
2023-06-29T20:30:37.411Z,26.40
2023-06-29T20:33:05.536Z,26.30
2023-06-29T20:35:34.563Z,26.30
2023-06-29T20:38:02.680Z,26.30
2023-06-29T20:40:34.905Z,26.30
2023-06-29T20:43:03.070Z,26.30
2023-06-29T20:45:31.116Z,26.30
2023-06-29T20:47:59.796Z,26.30
2023-06-29T20:50:27.838Z,26.30
2023-06-29T20:52:55.899Z,26.30
2023-06-29T20:55:23.989Z,26.30
2023-06-29T20:57:53.360Z,26.20
2023-06-29T21:00:21.687Z,26.20
2023-06-29T21:02:49.895Z,26.20
2023-06-29T21:05:19.785Z,26.20
2023-06-29T21:07:48.268Z,26.20
2023-06-29T21:10:16.454Z,26.20
2023-06-29T21:12:45.440Z,26.20
2023-06-29T21:15:15.796Z,26.20
2023-06-29T21:17:44.348Z,26.20
2023-06-29T21:20:13.979Z,26.20
2023-06-29T21:22:42.989Z,26.20
2023-06-29T21:25:13.221Z,26.20
2023-06-29T21:27:42.919Z,26.10
2023-06-29T21:30:13.882Z,26.20
2023-06-29T21:32:42.515Z,26.10
2023-06-29T21:35:12.445Z,26.10
2023-06-29T21:37:41.136Z,26.10
2023-06-29T21:40:11.303Z,26.10
2023-06-29T21:42:39.448Z,26.10
2023-06-29T21:45:08.647Z,26.10
2023-06-29T21:47:38.133Z,26.10
2023-06-29T21:50:08.069Z,26.00
2023-06-29T21:52:36.183Z,26.00
2023-06-29T21:55:04.775Z,26.00
2023-06-29T21:57:32.932Z,26.00
2023-06-29T22:00:01.031Z,26.00
2023-06-29T22:02:29.205Z,26.00
2023-06-29T22:04:58.672Z,26.00
2023-06-29T22:07:27.759Z,26.00
2023-06-29T22:09:55.911Z,26.00
2023-06-29T22:12:24.225Z,25.90
2023-06-29T22:14:52.314Z,26.00
2023-06-29T22:17:21.762Z,25.90
2023-06-29T22:20:12.997Z,25.90
2023-06-29T22:22:41.854Z,25.90
2023-06-29T22:25:10.569Z,25.90
2023-06-29T22:27:38.878Z,25.90
2023-06-29T22:30:08.703Z,25.90
2023-06-29T22:32:36.750Z,25.90
2023-06-29T22:35:05.162Z,25.80
2023-06-29T22:37:34.658Z,25.90
2023-06-29T22:40:05.993Z,25.80
2023-06-29T22:42:34.136Z,25.80
2023-06-29T22:45:02.610Z,25.80
2023-06-29T22:47:30.725Z,25.80
2023-06-29T22:49:58.825Z,25.80
2023-06-29T22:52:26.944Z,25.80
2023-06-29T22:54:56.358Z,25.80
2023-06-29T22:57:24.497Z,25.70
2023-06-29T22:59:53.786Z,25.80
2023-06-29T23:02:22.098Z,25.70
2023-06-29T23:04:50.288Z,25.70
2023-06-29T23:07:19.678Z,25.70
2023-06-29T23:09:47.766Z,25.70
2023-06-29T23:12:21.898Z,25.70
2023-06-29T23:14:52.516Z,25.70
2023-06-29T23:17:23.267Z,25.70
2023-06-29T23:19:51.663Z,25.70
2023-06-29T23:22:22.588Z,25.70
2023-06-29T23:24:53.520Z,25.60
2023-06-29T23:27:23.140Z,25.60
2023-06-29T23:29:53.878Z,25.60
2023-06-29T23:32:22.397Z,25.60
2023-06-29T23:34:51.011Z,25.60
2023-06-29T23:37:19.113Z,25.60
2023-06-29T23:39:47.147Z,25.60
2023-06-29T23:42:15.272Z,25.60
2023-06-29T23:44:44.682Z,25.50
2023-06-29T23:47:13.886Z,25.50
2023-06-29T23:49:42.996Z,25.50
2023-06-29T23:52:11.166Z,25.50
2023-06-29T23:54:39.533Z,25.50
2023-06-29T23:57:08.752Z,25.50
2023-06-29T23:59:36.783Z,25.50
